createdAt,value
2018-02-26T00:00:02.989Z,3.20
2018-02-26T00:02:31.014Z,3.70
2018-02-26T00:04:59.252Z,3.13
2018-02-26T00:07:28.655Z,5.75
2018-02-26T00:09:57.817Z,3.60
2018-02-26T00:12:26.165Z,3.63
2018-02-26T00:14:54.434Z,3.73
2018-02-26T00:17:22.679Z,3.30
2018-02-26T00:19:51.060Z,3.90
2018-02-26T00:22:19.300Z,3.83
2018-02-26T00:24:47.611Z,3.67
2018-02-26T00:27:16.637Z,3.83
2018-02-26T00:29:44.917Z,3.60
2018-02-26T00:32:13.190Z,3.70
2018-02-26T00:34:41.445Z,3.60
2018-02-26T00:37:10.453Z,3.43
2018-02-26T00:39:39.112Z,3.80
2018-02-26T00:42:07.369Z,4.00
2018-02-26T00:44:35.601Z,3.33
2018-02-26T00:47:03.877Z,3.40
2018-02-26T00:49:32.153Z,3.77
2018-02-26T00:52:00.421Z,4.93
2018-02-26T00:54:28.682Z,4.10
2018-02-26T00:56:57.905Z,3.90
2018-02-26T00:59:26.493Z,4.10
2018-02-26T01:01:55.589Z,3.77
2018-02-26T01:04:23.961Z,4.00
2018-02-26T01:06:52.239Z,4.50
2018-02-26T01:09:20.618Z,3.90
2018-02-26T01:11:48.877Z,4.50
2018-02-26T01:14:17.878Z,4.43
2018-02-26T01:16:46.293Z,3.70
2018-02-26T01:19:14.530Z,4.40
2018-02-26T01:21:44.495Z,3.27
2018-02-26T01:24:14.782Z,4.70
2018-02-26T01:26:43.028Z,5.13
2018-02-26T01:29:11.392Z,4.00
2018-02-26T01:31:39.628Z,4.17
2018-02-26T01:34:07.979Z,5.00
2018-02-26T01:36:36.324Z,4.63
2018-02-26T01:39:05.445Z,4.90
2018-02-26T01:41:33.707Z,5.47
2018-02-26T01:44:02.013Z,5.33
2018-02-26T01:46:30.256Z,5.30
2018-02-26T01:48:58.514Z,5.43
2018-02-26T01:51:26.956Z,5.00
2018-02-26T01:53:55.222Z,5.40
2018-02-26T01:56:23.565Z,4.40
2018-02-26T01:58:52.682Z,4.90
2018-02-26T02:01:21.073Z,4.73
2018-02-26T02:03:49.469Z,4.40
2018-02-26T02:06:17.732Z,4.20
2018-02-26T02:08:46.793Z,3.80
2018-02-26T02:11:15.942Z,3.13
2018-02-26T02:13:44.197Z,3.73
2018-02-26T02:16:12.460Z,3.37
2018-02-26T02:18:40.692Z,3.83
2018-02-26T02:21:09.021Z,3.30
2018-02-26T02:23:37.285Z,3.00
2018-02-26T02:26:05.556Z,4.27
2018-02-26T02:28:33.874Z,4.03
2018-02-26T02:31:02.144Z,4.77
2018-02-26T02:33:30.417Z,4.07
2018-02-26T02:35:58.656Z,4.40
2018-02-26T02:38:27.973Z,4.13
2018-02-26T02:40:56.252Z,4.50
2018-02-26T02:43:24.507Z,4.67
2018-02-26T02:45:54.650Z,4.70
2018-02-26T02:48:22.919Z,6.60
2018-02-26T02:50:51.415Z,6.90
2018-02-26T02:53:19.702Z,6.87
2018-02-26T02:55:47.964Z,6.67
2018-02-26T02:58:16.262Z,6.90
2018-02-26T03:00:44.511Z,7.30
2018-02-26T03:03:12.758Z,7.37
2018-02-26T03:05:41.156Z,7.83
2018-02-26T03:08:09.509Z,7.30
2018-02-26T03:10:37.725Z,7.97
2018-02-26T03:13:06.103Z,8.40
2018-02-26T03:15:34.586Z,8.43
2018-02-26T03:18:02.813Z,8.10
2018-02-26T03:20:32.142Z,7.97
2018-02-26T03:23:00.421Z,7.13
2018-02-26T03:25:28.718Z,7.23
2018-02-26T03:27:56.957Z,6.40
2018-02-26T03:30:25.982Z,7.60
2018-02-26T03:32:54.221Z,6.70
2018-02-26T03:35:22.549Z,8.13
2018-02-26T03:37:50.913Z,7.23
2018-02-26T03:40:19.174Z,7.50
2018-02-26T03:42:47.428Z,6.97
2018-02-26T03:45:15.721Z,6.93
2018-02-26T03:47:44.807Z,6.77
2018-02-26T03:50:14.032Z,6.93
2018-02-26T03:52:42.416Z,5.90
2018-02-26T03:55:10.662Z,6.10
2018-02-26T03:57:39.841Z,5.50
2018-02-26T04:00:08.067Z,6.97
2018-02-26T04:02:36.333Z,5.60
2018-02-26T04:05:04.905Z,5.60
2018-02-26T04:07:33.185Z,6.40
2018-02-26T04:10:01.438Z,6.47
2018-02-26T04:12:29.749Z,5.90
2018-02-26T04:14:58.102Z,6.00
2018-02-26T04:17:27.209Z,6.30
2018-02-26T04:19:55.457Z,6.60
2018-02-26T04:22:23.786Z,5.80
2018-02-26T04:24:52.039Z,6.90
2018-02-26T04:27:20.298Z,7.10
2018-02-26T04:29:49.386Z,6.47
2018-02-26T04:32:17.699Z,6.63
2018-02-26T04:34:45.965Z,6.50
2018-02-26T04:37:14.218Z,5.53
2018-02-26T04:39:43.438Z,6.37
2018-02-26T04:42:11.708Z,5.60
2018-02-26T04:44:40.078Z,6.20
2018-02-26T04:47:09.109Z,6.00
2018-02-26T04:49:37.345Z,6.73
2018-02-26T04:52:05.592Z,6.30
2018-02-26T04:54:33.824Z,6.00
2018-02-26T04:57:02.078Z,7.17
2018-02-26T04:59:31.244Z,7.80
2018-02-26T05:01:59.490Z,7.40
2018-02-26T05:04:27.717Z,6.33
2018-02-26T05:06:56.813Z,6.90
2018-02-26T05:09:25.839Z,6.30
2018-02-26T05:11:54.062Z,7.47
2018-02-26T05:14:22.346Z,6.07
2018-02-26T05:16:50.834Z,6.87
2018-02-26T05:19:19.879Z,5.20
2018-02-26T05:21:48.138Z,5.67
2018-02-26T05:24:17.201Z,6.40
2018-02-26T05:26:45.572Z,5.87
2018-02-26T05:29:13.809Z,6.40
2018-02-26T05:31:42.053Z,6.17
2018-02-26T05:34:11.157Z,6.20
2018-02-26T05:36:39.433Z,5.87
2018-02-26T05:39:07.707Z,5.73
2018-02-26T05:41:36.218Z,6.63
2018-02-26T05:44:04.463Z,6.27
2018-02-26T05:46:32.684Z,5.93
2018-02-26T05:49:01.022Z,5.90
2018-02-26T05:51:29.329Z,5.50
2018-02-26T05:53:57.595Z,6.30
2018-02-26T05:56:25.828Z,6.20
2018-02-26T05:58:54.109Z,6.70
2018-02-26T06:01:22.357Z,6.00
2018-02-26T06:03:50.585Z,5.70
2018-02-26T06:06:19.835Z,5.50
2018-02-26T06:08:48.053Z,6.30
2018-02-26T06:11:16.324Z,5.50
2018-02-26T06:13:44.599Z,5.60
2018-02-26T06:16:12.937Z,5.40
2018-02-26T06:18:41.152Z,5.67
2018-02-26T06:21:09.424Z,5.90
2018-02-26T06:23:37.693Z,6.77
2018-02-26T06:26:05.997Z,6.00
2018-02-26T06:28:34.296Z,5.83
2018-02-26T06:31:02.615Z,6.50
2018-02-26T06:33:31.035Z,6.50
2018-02-26T06:35:59.281Z,6.80
2018-02-26T06:38:27.530Z,6.13
2018-02-26T06:40:55.838Z,6.20
2018-02-26T06:43:24.113Z,6.80
2018-02-26T06:45:53.184Z,5.80
2018-02-26T06:48:21.430Z,6.13
2018-02-26T06:50:49.739Z,6.13
2018-02-26T06:53:19.229Z,5.77
2018-02-26T06:55:47.524Z,5.37
2018-02-26T06:58:16.739Z,6.83
2018-02-26T07:00:44.997Z,6.00
2018-02-26T07:03:13.992Z,5.97
2018-02-26T07:05:43.102Z,6.53
2018-02-26T07:08:11.347Z,6.00
2018-02-26T07:10:39.633Z,6.33
2018-02-26T07:13:07.962Z,5.90
2018-02-26T07:15:36.233Z,6.20
2018-02-26T07:18:04.468Z,6.17
2018-02-26T07:20:33.612Z,5.93
2018-02-26T07:23:01.864Z,5.65
2018-02-26T07:25:30.130Z,7.23
2018-02-26T07:27:58.389Z,6.30
2018-02-26T07:30:27.502Z,6.23
2018-02-26T07:32:55.748Z,5.57
2018-02-26T07:35:24.125Z,6.17
2018-02-26T07:37:54.089Z,6.28
2018-02-26T07:40:22.458Z,5.33
2018-02-26T07:42:50.729Z,5.77
2018-02-26T07:45:18.974Z,5.60
2018-02-26T07:47:47.262Z,5.63
2018-02-26T07:50:16.415Z,5.63
2018-02-26T07:52:44.678Z,5.70
2018-02-26T07:55:12.969Z,5.73
2018-02-26T07:57:42.867Z,6.23
2018-02-26T08:00:11.169Z,5.37
2018-02-26T08:02:39.463Z,5.50
2018-02-26T08:05:07.704Z,6.20
2018-02-26T08:07:35.945Z,6.23
2018-02-26T08:10:04.212Z,5.63
2018-02-26T08:12:33.351Z,4.83
2018-02-26T08:15:01.613Z,5.67
2018-02-26T08:17:29.880Z,4.83
2018-02-26T08:19:58.198Z,6.10
2018-02-26T08:22:26.487Z,5.40
2018-02-26T08:24:54.730Z,5.43
2018-02-26T08:27:23.024Z,6.00
2018-02-26T08:29:51.282Z,5.10
2018-02-26T08:32:19.546Z,5.23
2018-02-26T08:34:47.804Z,6.07
2018-02-26T08:37:16.891Z,5.13
2018-02-26T08:39:46.089Z,6.30
2018-02-26T08:42:14.358Z,5.23
2018-02-26T08:44:42.987Z,5.00
2018-02-26T08:47:12.232Z,6.00
2018-02-26T08:49:40.513Z,6.13
2018-02-26T08:52:09.732Z,4.97
2018-02-26T08:54:38.004Z,5.37
2018-02-26T08:57:06.202Z,5.20
2018-02-26T08:59:34.571Z,4.80
2018-02-26T09:02:02.768Z,5.00
2018-02-26T09:04:31.014Z,4.83
2018-02-26T09:06:59.264Z,5.70
2018-02-26T09:09:28.602Z,5.40
2018-02-26T09:12:01.484Z,4.63
2018-02-26T09:14:29.908Z,4.50
2018-02-26T09:16:58.233Z,4.63
2018-02-26T09:19:27.455Z,4.60
2018-02-26T09:21:56.452Z,3.90
2018-02-26T09:24:29.902Z,4.40
2018-02-26T09:26:58.214Z,4.47
2018-02-26T09:29:26.438Z,4.20
2018-02-26T09:31:56.844Z,4.40
2018-02-26T09:34:26.012Z,4.77
2018-02-26T09:36:54.337Z,4.87
2018-02-26T09:39:23.061Z,4.87
2018-02-26T09:41:51.334Z,4.20
2018-02-26T09:44:19.610Z,4.93
2018-02-26T09:46:48.630Z,3.70
2018-02-26T09:49:17.730Z,4.35
2018-02-26T09:51:46.047Z,4.27
2018-02-26T09:54:14.372Z,3.40
2018-02-26T09:56:42.602Z,3.40
2018-02-26T09:59:10.950Z,5.13
2018-02-26T10:01:39.201Z,3.93
2018-02-26T10:04:07.427Z,4.93
2018-02-26T10:06:35.804Z,3.80
2018-02-26T10:09:04.036Z,3.97
2018-02-26T10:11:32.279Z,4.73
2018-02-26T10:14:01.395Z,5.83
2018-02-26T10:16:29.643Z,4.03
2018-02-26T10:18:58.738Z,4.43
2018-02-26T10:21:28.679Z,3.77
2018-02-26T10:23:56.940Z,4.97
2018-02-26T10:26:25.294Z,4.43
2018-02-26T10:28:55.559Z,3.60
2018-02-26T10:31:23.790Z,3.33
2018-02-26T10:33:52.114Z,3.70
2018-02-26T10:36:20.377Z,2.87
2018-02-26T10:38:49.361Z,3.40
2018-02-26T10:41:17.633Z,2.33
2018-02-26T10:43:45.879Z,3.50
2018-02-26T10:46:14.109Z,3.43
2018-02-26T10:48:42.371Z,2.93
2018-02-26T10:51:10.831Z,3.17
2018-02-26T10:53:39.218Z,2.50
2018-02-26T10:56:07.471Z,2.93
2018-02-26T10:58:35.758Z,3.20
2018-02-26T11:01:03.977Z,4.03
2018-02-26T11:03:32.201Z,3.33
2018-02-26T11:06:01.318Z,2.60
2018-02-26T11:08:29.600Z,3.27
2018-02-26T11:10:57.893Z,2.17
2018-02-26T11:13:26.122Z,2.50
2018-02-26T11:15:54.398Z,2.43
2018-02-26T11:18:23.501Z,2.53
2018-02-26T11:20:51.822Z,3.43
2018-02-26T11:23:20.050Z,4.90
2018-02-26T11:25:49.065Z,5.10
2018-02-26T11:28:17.457Z,5.80
2018-02-26T11:30:45.807Z,4.77
2018-02-26T11:33:14.036Z,4.00
2018-02-26T11:35:42.334Z,4.10
2018-02-26T11:38:10.668Z,4.60
2018-02-26T11:40:39.003Z,4.03
2018-02-26T11:43:07.230Z,3.47
2018-02-26T11:45:35.544Z,3.50
2018-02-26T11:48:03.837Z,3.33
2018-02-26T11:50:32.124Z,2.80
2018-02-26T11:53:00.388Z,4.13
2018-02-26T11:55:29.647Z,3.40
2018-02-26T11:57:57.958Z,3.23
2018-02-26T12:00:26.268Z,3.23
2018-02-26T12:02:55.973Z,3.53
2018-02-26T12:05:25.143Z,3.30
2018-02-26T12:07:53.357Z,3.30
2018-02-26T12:10:21.618Z,3.13
2018-02-26T12:12:50.648Z,2.57
2018-02-26T12:15:19.045Z,3.13
2018-02-26T12:17:47.408Z,3.40
2018-02-26T12:20:15.791Z,3.40
2018-02-26T12:22:44.074Z,3.20
2018-02-26T12:25:14.436Z,3.33
2018-02-26T12:27:42.679Z,3.27
2018-02-26T12:30:11.057Z,3.30
2018-02-26T12:32:39.365Z,3.30
2018-02-26T12:35:08.484Z,2.97
2018-02-26T12:37:37.617Z,3.33
2018-02-26T12:40:05.874Z,3.17
2018-02-26T12:42:34.179Z,3.33
2018-02-26T12:45:02.446Z,4.10
2018-02-26T12:47:30.673Z,3.20
2018-02-26T12:49:59.706Z,3.13
2018-02-26T12:52:28.130Z,2.57
2018-02-26T12:54:56.382Z,3.50
2018-02-26T12:57:24.608Z,2.73
2018-02-26T12:59:53.765Z,3.40
2018-02-26T13:02:22.023Z,3.00
2018-02-26T13:04:50.307Z,3.07
2018-02-26T13:07:18.575Z,2.63
2018-02-26T13:09:46.809Z,2.70
2018-02-26T13:12:15.069Z,2.60
2018-02-26T13:14:44.158Z,2.47
2018-02-26T13:17:12.455Z,2.53
2018-02-26T13:19:40.689Z,1.90
2018-02-26T13:22:09.038Z,2.47
2018-02-26T13:24:37.565Z,2.67
2018-02-26T13:27:05.799Z,2.00
2018-02-26T13:29:34.046Z,1.97
2018-02-26T13:32:02.535Z,2.03
2018-02-26T13:34:31.529Z,2.43
2018-02-26T13:36:59.764Z,2.07
2018-02-26T13:39:28.193Z,1.90
2018-02-26T13:41:56.436Z,1.97
2018-02-26T13:44:27.871Z,2.13
2018-02-26T13:46:56.361Z,1.77
2018-02-26T13:49:24.574Z,2.43
2018-02-26T13:51:52.911Z,2.50
2018-02-26T13:54:21.180Z,2.30
2018-02-26T13:56:50.293Z,2.80
2018-02-26T13:59:18.706Z,2.23
2018-02-26T14:01:46.954Z,2.10
2018-02-26T14:04:16.129Z,2.00
2018-02-26T14:06:44.319Z,2.30
2018-02-26T14:09:14.320Z,2.00
2018-02-26T14:11:42.544Z,2.47
2018-02-26T14:14:10.816Z,2.00
2018-02-26T14:16:39.357Z,1.80
2018-02-26T14:19:07.566Z,1.90
2018-02-26T14:21:35.826Z,1.93
2018-02-26T14:24:04.110Z,2.10
2018-02-26T14:26:32.388Z,1.90
2018-02-26T14:29:01.491Z,2.10
2018-02-26T14:31:29.834Z,2.57
2018-02-26T14:33:58.057Z,2.17
2018-02-26T14:36:26.346Z,2.20
2018-02-26T14:38:54.830Z,2.20
2018-02-26T14:41:23.290Z,2.30
2018-02-26T14:43:51.615Z,2.13
2018-02-26T14:46:20.112Z,1.83
2018-02-26T14:48:48.320Z,1.73
2018-02-26T14:51:16.633Z,1.77
2018-02-26T14:53:44.873Z,1.90
2018-02-26T14:56:13.137Z,2.30
2018-02-26T14:58:41.412Z,1.90
2018-02-26T15:01:10.519Z,1.50
2018-02-26T15:03:38.914Z,1.93
2018-02-26T15:06:07.203Z,2.00
2018-02-26T15:08:35.435Z,2.00
2018-02-26T15:11:03.791Z,1.80
2018-02-26T15:13:32.826Z,2.20
2018-02-26T15:16:01.173Z,2.23
2018-02-26T15:18:30.233Z,1.97
2018-02-26T15:20:58.549Z,1.33
2018-02-26T15:23:27.643Z,1.63
2018-02-26T15:25:56.773Z,2.43
2018-02-26T15:28:25.036Z,2.77
2018-02-26T15:30:54.194Z,1.80
2018-02-26T15:33:22.638Z,1.80
2018-02-26T15:35:50.938Z,1.50
2018-02-26T15:38:19.166Z,1.33
2018-02-26T15:40:47.650Z,1.50
2018-02-26T15:43:15.901Z,1.20
2018-02-26T15:45:44.934Z,1.87
2018-02-26T15:48:13.159Z,1.47
2018-02-26T15:50:41.434Z,1.10
2018-02-26T15:53:11.149Z,1.53
2018-02-26T15:55:39.366Z,1.67
2018-02-26T15:58:07.617Z,1.90
2018-02-26T16:00:35.882Z,2.00
2018-02-26T16:03:05.111Z,1.20
2018-02-26T16:05:33.366Z,2.10
2018-02-26T16:08:01.619Z,1.90
2018-02-26T16:10:29.862Z,1.73
2018-02-26T16:12:58.105Z,1.70
2018-02-26T16:15:26.346Z,1.63
2018-02-26T16:17:55.513Z,1.67
2018-02-26T16:20:23.741Z,1.40
2018-02-26T16:22:52.023Z,1.40
2018-02-26T16:25:20.269Z,2.03
2018-02-26T16:27:49.321Z,2.30
2018-02-26T16:30:17.741Z,2.13
2018-02-26T16:32:46.005Z,2.43
2018-02-26T16:35:14.249Z,1.70
2018-02-26T16:37:42.811Z,2.07
2018-02-26T16:40:11.056Z,2.43
2018-02-26T16:42:39.529Z,2.10
2018-02-26T16:45:07.767Z,2.07
2018-02-26T16:47:36.058Z,2.40
2018-02-26T16:50:04.326Z,2.00
2018-02-26T16:52:33.563Z,2.23
2018-02-26T16:55:02.681Z,1.93
2018-02-26T16:57:31.796Z,1.70
2018-02-26T17:00:00.044Z,1.60
2018-02-26T17:02:29.895Z,1.50
2018-02-26T17:04:58.469Z,1.80
2018-02-26T17:07:26.695Z,2.70
2018-02-26T17:09:55.701Z,1.97
2018-02-26T17:12:24.108Z,1.80
2018-02-26T17:14:52.926Z,2.17
2018-02-26T17:17:21.273Z,2.97
2018-02-26T17:19:49.612Z,2.37
2018-02-26T17:22:19.440Z,2.27
2018-02-26T17:24:48.462Z,2.10
2018-02-26T17:27:16.838Z,2.20
2018-02-26T17:29:45.090Z,3.07
2018-02-26T17:32:13.403Z,2.50
2018-02-26T17:34:41.646Z,2.13
2018-02-26T17:37:10.694Z,2.30
2018-02-26T17:39:39.013Z,1.90
2018-02-26T17:42:08.166Z,1.83
2018-02-26T17:44:36.414Z,2.37
2018-02-26T17:47:04.697Z,2.43
2018-02-26T17:49:33.005Z,3.50
2018-02-26T17:52:01.306Z,2.50
2018-02-26T17:54:29.570Z,2.50
2018-02-26T17:56:57.782Z,2.80
2018-02-26T17:59:26.051Z,2.27
2018-02-26T18:01:55.439Z,2.57
2018-02-26T18:04:24.532Z,2.70
2018-02-26T18:06:53.669Z,3.20
2018-02-26T18:09:22.096Z,1.93
2018-02-26T18:11:50.356Z,2.40
2018-02-26T18:14:18.659Z,1.73
2018-02-26T18:16:46.934Z,2.23
2018-02-26T18:19:15.172Z,2.27
2018-02-26T18:21:43.424Z,3.07
2018-02-26T18:24:12.505Z,2.60
2018-02-26T18:26:41.671Z,2.83
2018-02-26T18:58:43.774Z,3.00
2018-02-26T19:01:12.051Z,3.17
2018-02-26T19:03:40.310Z,3.67
2018-02-26T19:06:08.767Z,3.50
2018-02-26T19:08:36.986Z,3.30
2018-02-26T19:11:06.048Z,3.47
2018-02-26T19:13:34.354Z,3.50
2018-02-26T19:16:03.406Z,4.10
2018-02-26T19:18:31.717Z,3.00
2018-02-26T19:21:00.743Z,3.00
2018-02-26T19:23:29.081Z,3.00
2018-02-26T19:26:00.104Z,3.20
2018-02-26T19:28:28.379Z,3.00
2018-02-26T19:30:57.389Z,2.97
2018-02-26T19:33:26.421Z,3.13
2018-02-26T19:35:54.774Z,3.67
2018-02-26T19:38:23.902Z,3.47
2018-02-26T19:40:52.146Z,3.83
2018-02-26T19:43:20.398Z,2.97
2018-02-26T19:45:49.433Z,3.23
2018-02-26T19:48:17.860Z,2.97
2018-02-26T19:50:46.125Z,3.50
2018-02-26T19:53:14.379Z,3.43
2018-02-26T19:55:42.648Z,3.17
2018-02-26T19:58:10.971Z,2.43
2018-02-26T20:00:39.410Z,2.47
2018-02-26T20:03:08.624Z,3.03
2018-02-26T20:05:36.968Z,2.43
2018-02-26T20:08:05.218Z,2.40
2018-02-26T20:10:33.463Z,2.83
2018-02-26T20:13:01.762Z,2.60
2018-02-26T20:15:29.999Z,2.77
2018-02-26T20:17:58.263Z,2.60
2018-02-26T20:20:26.634Z,3.17
2018-02-26T20:22:54.902Z,2.50
2018-02-26T20:25:23.239Z,2.87
2018-02-26T20:27:51.486Z,2.47
2018-02-26T20:30:19.989Z,2.80
2018-02-26T20:32:48.294Z,2.57
2018-02-26T20:35:16.585Z,2.60
2018-02-26T20:37:44.840Z,2.75
2018-02-26T20:40:13.125Z,2.57
2018-02-26T20:42:42.297Z,2.70
2018-02-26T20:45:10.525Z,3.57
2018-02-26T20:47:39.595Z,2.93
2018-02-26T20:50:07.871Z,2.80
2018-02-26T20:52:36.159Z,2.70
2018-02-26T20:55:04.463Z,2.87
2018-02-26T20:57:32.783Z,2.83
2018-02-26T21:00:01.008Z,3.43
2018-02-26T21:02:29.264Z,2.57
2018-02-26T21:04:57.640Z,3.20
2018-02-26T21:07:25.926Z,2.93
2018-02-26T21:09:54.283Z,2.47
2018-02-26T21:12:22.564Z,2.90
2018-02-26T21:14:50.925Z,2.67
2018-02-26T21:17:20.059Z,2.60
2018-02-26T21:19:48.337Z,2.43
2018-02-26T21:22:16.641Z,2.83
2018-02-26T21:24:44.849Z,2.70
2018-02-26T21:27:13.181Z,2.80
2018-02-26T21:29:41.461Z,2.87
2018-02-26T21:32:09.706Z,3.20
2018-02-26T21:34:37.956Z,3.07
2018-02-26T21:37:07.096Z,3.03
2018-02-26T21:39:35.331Z,3.42
2018-02-26T21:42:04.458Z,3.63
2018-02-26T21:44:32.712Z,3.07
2018-02-26T21:47:00.994Z,3.43
2018-02-26T21:49:30.080Z,3.13
2018-02-26T21:51:59.250Z,3.27
2018-02-26T21:54:27.709Z,3.27
2018-02-26T21:56:55.981Z,3.00
2018-02-26T21:59:24.283Z,3.33
2018-02-26T22:01:56.501Z,3.63
2018-02-26T22:04:24.961Z,3.13
2018-02-26T22:06:53.433Z,3.40
2018-02-26T22:09:21.819Z,3.33
2018-02-26T22:11:50.240Z,2.90
2018-02-26T22:14:18.518Z,3.53
2018-02-26T22:16:46.936Z,3.27
2018-02-26T22:19:15.818Z,3.00
2018-02-26T22:21:44.586Z,3.37
2018-02-26T22:24:12.830Z,4.57
2018-02-26T22:26:42.087Z,4.33
2018-02-26T22:29:10.286Z,4.60
2018-02-26T22:31:38.574Z,3.30
2018-02-26T22:34:08.334Z,3.30
2018-02-26T22:36:36.688Z,3.17
2018-02-26T22:39:06.177Z,2.87
2018-02-26T22:41:35.202Z,4.90
2018-02-26T22:44:03.446Z,2.90
2018-02-26T22:46:31.696Z,2.73
2018-02-26T22:49:01.163Z,2.83
2018-02-26T22:51:29.540Z,3.20
2018-02-26T22:53:58.035Z,2.90
2018-02-26T22:56:28.417Z,3.17
2018-02-26T22:58:56.667Z,2.60
2018-02-26T23:01:26.481Z,2.60
2018-02-26T23:03:55.750Z,2.40
2018-02-26T23:06:23.942Z,2.70
2018-02-26T23:08:53.939Z,2.70
2018-02-26T23:11:22.742Z,2.27
2018-02-26T23:13:51.928Z,2.93
2018-02-26T23:16:20.218Z,2.87
2018-02-26T23:18:48.460Z,2.50
2018-02-26T23:21:16.732Z,2.00
2018-02-26T23:23:44.988Z,2.30
2018-02-26T23:26:13.225Z,2.40
2018-02-26T23:28:42.266Z,2.53
2018-02-26T23:31:10.589Z,1.67
2018-02-26T23:33:39.718Z,2.65
2018-02-26T23:36:08.033Z,2.30
2018-02-26T23:38:36.332Z,2.40
2018-02-26T23:41:05.349Z,2.10
2018-02-26T23:43:33.590Z,2.77
2018-02-26T23:46:03.530Z,2.63
2018-02-26T23:48:32.913Z,2.40
2018-02-26T23:51:01.133Z,2.73
2018-02-26T23:53:29.426Z,2.03
2018-02-26T23:55:57.663Z,2.75
2018-02-26T23:58:26.013Z,2.77
